sensor_id;sensor_type;location;lat;lon;timestamp;P1;durP1;ratioP1;P2;durP2;ratioP2
7983;SDS011;4037;47.980;10.172;2022-12-18T00:02:25;34.57;;;18.73;;
7983;SDS011;4037;47.980;10.172;2022-12-18T00:04:51;35.33;;;17.40;;
7983;SDS011;4037;47.980;10.172;2022-12-18T00:07:17;30.47;;;17.97;;
7983;SDS011;4037;47.980;10.172;2022-12-18T00:09:43;32.30;;;16.63;;
7983;SDS011;4037;47.980;10.172;2022-12-18T00:12:09;33.63;;;16.50;;
7983;SDS011;4037;47.980;10.172;2022-12-18T00:14:35;33.83;;;17.47;;
7983;SDS011;4037;47.980;10.172;2022-12-18T00:17:01;36.10;;;17.60;;
7983;SDS011;4037;47.980;10.172;2022-12-18T00:19:27;29.30;;;15.47;;
7983;SDS011;4037;47.980;10.172;2022-12-18T00:21:53;31.43;;;16.67;;
7983;SDS011;4037;47.980;10.172;2022-12-18T00:24:19;32.43;;;17.17;;
7983;SDS011;4037;47.980;10.172;2022-12-18T00:26:45;33.80;;;17.13;;
7983;SDS011;4037;47.980;10.172;2022-12-18T00:29:12;35.87;;;18.90;;
7983;SDS011;4037;47.980;10.172;2022-12-18T00:31:39;31.93;;;17.10;;
7983;SDS011;4037;47.980;10.172;2022-12-18T00:34:05;33.03;;;17.83;;
7983;SDS011;4037;47.980;10.172;2022-12-18T00:36:32;37.10;;;17.83;;
7983;SDS011;4037;47.980;10.172;2022-12-18T00:38:59;33.07;;;17.43;;
7983;SDS011;4037;47.980;10.172;2022-12-18T00:41:26;30.00;;;15.63;;
7983;SDS011;4037;47.980;10.172;2022-12-18T00:44:14;29.53;;;16.37;;
7983;SDS011;4037;47.980;10.172;2022-12-18T00:46:41;30.33;;;17.50;;
7983;SDS011;4037;47.980;10.172;2022-12-18T00:49:07;33.37;;;17.23;;
7983;SDS011;4037;47.980;10.172;2022-12-18T00:51:33;33.40;;;16.87;;
7983;SDS011;4037;47.980;10.172;2022-12-18T00:53:59;33.50;;;17.10;;
7983;SDS011;4037;47.980;10.172;2022-12-18T00:56:25;32.63;;;15.40;;
7983;SDS011;4037;47.980;10.172;2022-12-18T00:58:51;31.10;;;15.10;;
7983;SDS011;4037;47.980;10.172;2022-12-18T01:01:17;29.27;;;16.00;;
7983;SDS011;4037;47.980;10.172;2022-12-18T01:03:43;32.77;;;15.53;;
7983;SDS011;4037;47.980;10.172;2022-12-18T01:06:13;30.90;;;16.27;;
7983;SDS011;4037;47.980;10.172;2022-12-18T01:08:39;33.57;;;16.17;;
7983;SDS011;4037;47.980;10.172;2022-12-18T01:11:13;32.03;;;15.90;;
7983;SDS011;4037;47.980;10.172;2022-12-18T01:13:39;28.20;;;16.70;;
7983;SDS011;4037;47.980;10.172;2022-12-18T01:16:05;30.80;;;15.83;;
7983;SDS011;4037;47.980;10.172;2022-12-18T01:18:31;31.70;;;16.77;;
7983;SDS011;4037;47.980;10.172;2022-12-18T01:20:57;31.93;;;16.33;;
7983;SDS011;4037;47.980;10.172;2022-12-18T01:23:26;33.33;;;16.23;;
7983;SDS011;4037;47.980;10.172;2022-12-18T01:25:53;26.33;;;14.87;;
7983;SDS011;4037;47.980;10.172;2022-12-18T01:28:19;32.23;;;17.40;;
7983;SDS011;4037;47.980;10.172;2022-12-18T01:30:45;32.60;;;17.10;;
7983;SDS011;4037;47.980;10.172;2022-12-18T01:33:11;27.33;;;15.37;;
7983;SDS011;4037;47.980;10.172;2022-12-18T01:35:40;29.90;;;16.33;;
7983;SDS011;4037;47.980;10.172;2022-12-18T01:38:06;36.70;;;16.60;;
7983;SDS011;4037;47.980;10.172;2022-12-18T01:40:33;32.20;;;16.20;;
7983;SDS011;4037;47.980;10.172;2022-12-18T01:42:59;30.50;;;16.03;;
7983;SDS011;4037;47.980;10.172;2022-12-18T01:45:26;30.17;;;14.47;;
7983;SDS011;4037;47.980;10.172;2022-12-18T01:47:56;32.53;;;15.43;;
7983;SDS011;4037;47.980;10.172;2022-12-18T01:50:28;29.40;;;15.43;;
7983;SDS011;4037;47.980;10.172;2022-12-18T01:53:01;30.90;;;15.57;;
7983;SDS011;4037;47.980;10.172;2022-12-18T01:55:29;26.33;;;14.50;;
7983;SDS011;4037;47.980;10.172;2022-12-18T01:57:57;28.97;;;14.87;;
7983;SDS011;4037;47.980;10.172;2022-12-18T02:00:24;32.53;;;15.83;;
7983;SDS011;4037;47.980;10.172;2022-12-18T02:02:51;31.90;;;16.33;;
7983;SDS011;4037;47.980;10.172;2022-12-18T02:08:15;31.37;;;16.27;;
7983;SDS011;4037;47.980;10.172;2022-12-18T02:10:45;32.47;;;15.80;;
7983;SDS011;4037;47.980;10.172;2022-12-18T02:13:14;31.67;;;16.67;;
7983;SDS011;4037;47.980;10.172;2022-12-18T02:18:12;28.83;;;14.40;;
7983;SDS011;4037;47.980;10.172;2022-12-18T02:21:04;31.30;;;16.97;;
7983;SDS011;4037;47.980;10.172;2022-12-18T02:28:22;36.37;;;17.43;;
7983;SDS011;4037;47.980;10.172;2022-12-18T02:30:49;33.17;;;15.53;;
7983;SDS011;4037;47.980;10.172;2022-12-18T02:33:17;30.33;;;15.77;;
7983;SDS011;4037;47.980;10.172;2022-12-18T02:35:44;27.50;;;15.53;;
7983;SDS011;4037;47.980;10.172;2022-12-18T02:38:11;33.30;;;15.97;;
7983;SDS011;4037;47.980;10.172;2022-12-18T02:40:37;30.80;;;16.23;;
7983;SDS011;4037;47.980;10.172;2022-12-18T02:43:11;30.17;;;16.57;;
7983;SDS011;4037;47.980;10.172;2022-12-18T02:45:50;29.27;;;15.27;;
7983;SDS011;4037;47.980;10.172;2022-12-18T02:48:18;30.00;;;15.77;;
7983;SDS011;4037;47.980;10.172;2022-12-18T02:50:51;29.63;;;16.07;;
7983;SDS011;4037;47.980;10.172;2022-12-18T02:53:24;25.80;;;15.07;;
7983;SDS011;4037;47.980;10.172;2022-12-18T02:56:09;33.63;;;17.10;;
7983;SDS011;4037;47.980;10.172;2022-12-18T02:58:46;30.90;;;15.17;;
7983;SDS011;4037;47.980;10.172;2022-12-18T03:03:45;30.73;;;15.27;;
7983;SDS011;4037;47.980;10.172;2022-12-18T03:06:14;32.23;;;16.23;;
7983;SDS011;4037;47.980;10.172;2022-12-18T03:08:45;32.50;;;15.87;;
7983;SDS011;4037;47.980;10.172;2022-12-18T03:11:13;29.57;;;14.90;;
7983;SDS011;4037;47.980;10.172;2022-12-18T03:13:46;31.57;;;16.17;;
7983;SDS011;4037;47.980;10.172;2022-12-18T03:16:15;30.73;;;15.43;;
7983;SDS011;4037;47.980;10.172;2022-12-18T03:18:47;31.67;;;14.77;;
7983;SDS011;4037;47.980;10.172;2022-12-18T03:21:14;31.87;;;14.67;;
7983;SDS011;4037;47.980;10.172;2022-12-18T03:23:46;33.10;;;15.73;;
7983;SDS011;4037;47.980;10.172;2022-12-18T03:26:15;30.47;;;15.63;;
7983;SDS011;4037;47.980;10.172;2022-12-18T03:28:43;30.53;;;15.43;;
7983;SDS011;4037;47.980;10.172;2022-12-18T03:31:11;28.97;;;16.17;;
7983;SDS011;4037;47.980;10.172;2022-12-18T03:33:39;31.97;;;14.80;;
7983;SDS011;4037;47.980;10.172;2022-12-18T03:36:07;27.23;;;15.40;;
7983;SDS011;4037;47.980;10.172;2022-12-18T03:38:34;30.70;;;15.20;;
7983;SDS011;4037;47.980;10.172;2022-12-18T03:41:06;30.80;;;14.67;;
7983;SDS011;4037;47.980;10.172;2022-12-18T03:43:38;30.50;;;16.50;;
7983;SDS011;4037;47.980;10.172;2022-12-18T03:48:42;31.10;;;15.17;;
7983;SDS011;4037;47.980;10.172;2022-12-18T03:51:20;24.43;;;14.20;;
7983;SDS011;4037;47.980;10.172;2022-12-18T03:53:58;25.47;;;13.87;;
7983;SDS011;4037;47.980;10.172;2022-12-18T03:56:25;32.53;;;15.37;;
7983;SDS011;4037;47.980;10.172;2022-12-18T03:58:52;28.00;;;13.53;;
7983;SDS011;4037;47.980;10.172;2022-12-18T04:01:19;23.67;;;13.13;;
7983;SDS011;4037;47.980;10.172;2022-12-18T04:03:46;30.63;;;15.40;;
7983;SDS011;4037;47.980;10.172;2022-12-18T04:06:14;24.50;;;13.47;;
7983;SDS011;4037;47.980;10.172;2022-12-18T04:08:41;28.43;;;13.07;;
7983;SDS011;4037;47.980;10.172;2022-12-18T04:11:07;32.53;;;14.03;;
7983;SDS011;4037;47.980;10.172;2022-12-18T04:13:37;25.40;;;13.57;;
7983;SDS011;4037;47.980;10.172;2022-12-18T04:16:03;27.30;;;13.73;;
7983;SDS011;4037;47.980;10.172;2022-12-18T04:18:29;22.27;;;13.00;;
7983;SDS011;4037;47.980;10.172;2022-12-18T04:20:55;24.53;;;12.50;;
7983;SDS011;4037;47.980;10.172;2022-12-18T04:23:21;24.30;;;13.10;;
7983;SDS011;4037;47.980;10.172;2022-12-18T04:25:47;26.60;;;13.60;;
7983;SDS011;4037;47.980;10.172;2022-12-18T04:28:14;25.53;;;12.90;;
7983;SDS011;4037;47.980;10.172;2022-12-18T04:30:40;28.23;;;14.17;;
7983;SDS011;4037;47.980;10.172;2022-12-18T04:33:12;26.40;;;13.67;;
7983;SDS011;4037;47.980;10.172;2022-12-18T04:35:41;23.97;;;13.77;;
7983;SDS011;4037;47.980;10.172;2022-12-18T04:38:07;28.30;;;14.43;;
7983;SDS011;4037;47.980;10.172;2022-12-18T04:40:34;23.60;;;12.70;;
7983;SDS011;4037;47.980;10.172;2022-12-18T04:43:01;23.67;;;12.87;;
7983;SDS011;4037;47.980;10.172;2022-12-18T04:45:27;27.67;;;13.60;;
7983;SDS011;4037;47.980;10.172;2022-12-18T04:47:52;23.00;;;12.87;;
7983;SDS011;4037;47.980;10.172;2022-12-18T04:50:18;24.50;;;13.60;;
7983;SDS011;4037;47.980;10.172;2022-12-18T04:52:44;29.53;;;14.70;;
7983;SDS011;4037;47.980;10.172;2022-12-18T04:55:10;29.93;;;14.90;;
7983;SDS011;4037;47.980;10.172;2022-12-18T04:57:36;31.47;;;15.33;;
7983;SDS011;4037;47.980;10.172;2022-12-18T05:00:03;29.07;;;14.13;;
7983;SDS011;4037;47.980;10.172;2022-12-18T05:02:30;28.03;;;16.70;;
7983;SDS011;4037;47.980;10.172;2022-12-18T05:04:57;28.27;;;14.47;;
7983;SDS011;4037;47.980;10.172;2022-12-18T05:07:23;26.77;;;13.60;;
7983;SDS011;4037;47.980;10.172;2022-12-18T05:09:49;26.43;;;14.10;;
7983;SDS011;4037;47.980;10.172;2022-12-18T05:12:15;27.40;;;13.93;;
7983;SDS011;4037;47.980;10.172;2022-12-18T05:14:41;23.57;;;13.07;;
7983;SDS011;4037;47.980;10.172;2022-12-18T05:17:07;27.70;;;12.77;;
7983;SDS011;4037;47.980;10.172;2022-12-18T05:19:33;29.83;;;13.73;;
7983;SDS011;4037;47.980;10.172;2022-12-18T05:21:59;26.87;;;13.87;;
7983;SDS011;4037;47.980;10.172;2022-12-18T05:24:26;25.47;;;13.63;;
7983;SDS011;4037;47.980;10.172;2022-12-18T05:26:52;25.53;;;13.60;;
7983;SDS011;4037;47.980;10.172;2022-12-18T05:29:18;24.33;;;12.60;;
7983;SDS011;4037;47.980;10.172;2022-12-18T05:31:44;29.30;;;13.37;;
7983;SDS011;4037;47.980;10.172;2022-12-18T05:34:10;32.20;;;15.00;;
7983;SDS011;4037;47.980;10.172;2022-12-18T05:36:36;23.17;;;12.17;;
7983;SDS011;4037;47.980;10.172;2022-12-18T05:39:02;26.80;;;13.90;;
7983;SDS011;4037;47.980;10.172;2022-12-18T05:41:28;25.30;;;13.70;;
7983;SDS011;4037;47.980;10.172;2022-12-18T05:43:54;23.60;;;12.50;;
7983;SDS011;4037;47.980;10.172;2022-12-18T05:46:20;26.50;;;13.20;;
7983;SDS011;4037;47.980;10.172;2022-12-18T05:48:46;27.00;;;12.63;;
7983;SDS011;4037;47.980;10.172;2022-12-18T05:51:15;23.63;;;12.57;;
7983;SDS011;4037;47.980;10.172;2022-12-18T05:53:42;24.80;;;12.33;;
7983;SDS011;4037;47.980;10.172;2022-12-18T05:56:10;22.73;;;11.93;;
7983;SDS011;4037;47.980;10.172;2022-12-18T05:58:37;25.87;;;12.03;;
7983;SDS011;4037;47.980;10.172;2022-12-18T06:01:07;23.37;;;12.07;;
7983;SDS011;4037;47.980;10.172;2022-12-18T06:03:33;25.73;;;13.57;;
7983;SDS011;4037;47.980;10.172;2022-12-18T06:05:59;21.37;;;11.83;;
7983;SDS011;4037;47.980;10.172;2022-12-18T06:08:25;23.63;;;12.40;;
7983;SDS011;4037;47.980;10.172;2022-12-18T06:10:51;24.80;;;12.13;;
7983;SDS011;4037;47.980;10.172;2022-12-18T06:13:18;30.00;;;12.37;;
7983;SDS011;4037;47.980;10.172;2022-12-18T06:15:44;22.03;;;11.57;;
7983;SDS011;4037;47.980;10.172;2022-12-18T06:18:10;22.20;;;13.33;;
7983;SDS011;4037;47.980;10.172;2022-12-18T06:20:36;20.83;;;12.43;;
7983;SDS011;4037;47.980;10.172;2022-12-18T06:23:04;22.97;;;12.33;;
7983;SDS011;4037;47.980;10.172;2022-12-18T06:25:30;19.83;;;10.93;;
7983;SDS011;4037;47.980;10.172;2022-12-18T06:27:56;23.87;;;12.33;;
7983;SDS011;4037;47.980;10.172;2022-12-18T06:30:22;21.50;;;11.67;;
7983;SDS011;4037;47.980;10.172;2022-12-18T06:32:48;20.50;;;12.50;;
7983;SDS011;4037;47.980;10.172;2022-12-18T06:35:14;20.83;;;11.10;;
7983;SDS011;4037;47.980;10.172;2022-12-18T06:37:41;25.97;;;11.73;;
7983;SDS011;4037;47.980;10.172;2022-12-18T06:40:07;21.93;;;11.57;;
7983;SDS011;4037;47.980;10.172;2022-12-18T06:42:33;25.50;;;11.90;;
7983;SDS011;4037;47.980;10.172;2022-12-18T06:44:59;24.17;;;12.83;;
7983;SDS011;4037;47.980;10.172;2022-12-18T06:47:25;23.33;;;12.13;;
7983;SDS011;4037;47.980;10.172;2022-12-18T06:49:51;26.57;;;13.23;;
7983;SDS011;4037;47.980;10.172;2022-12-18T06:52:17;24.30;;;12.77;;
7983;SDS011;4037;47.980;10.172;2022-12-18T06:54:43;26.60;;;11.50;;
7983;SDS011;4037;47.980;10.172;2022-12-18T06:57:09;22.90;;;12.13;;
7983;SDS011;4037;47.980;10.172;2022-12-18T06:59:35;23.87;;;12.80;;
7983;SDS011;4037;47.980;10.172;2022-12-18T07:02:02;25.33;;;13.20;;
7983;SDS011;4037;47.980;10.172;2022-12-18T07:04:29;30.50;;;15.27;;
7983;SDS011;4037;47.980;10.172;2022-12-18T07:06:55;27.57;;;13.93;;
7983;SDS011;4037;47.980;10.172;2022-12-18T07:09:22;28.07;;;13.93;;
7983;SDS011;4037;47.980;10.172;2022-12-18T07:11:48;23.30;;;13.07;;
7983;SDS011;4037;47.980;10.172;2022-12-18T07:14:14;27.80;;;13.23;;
7983;SDS011;4037;47.980;10.172;2022-12-18T07:16:40;25.10;;;13.63;;
7983;SDS011;4037;47.980;10.172;2022-12-18T07:19:06;22.07;;;12.97;;
7983;SDS011;4037;47.980;10.172;2022-12-18T07:21:32;21.63;;;13.07;;
7983;SDS011;4037;47.980;10.172;2022-12-18T07:23:58;20.07;;;10.93;;
7983;SDS011;4037;47.980;10.172;2022-12-18T07:26:24;19.00;;;11.43;;
7983;SDS011;4037;47.980;10.172;2022-12-18T07:28:53;22.13;;;11.70;;
7983;SDS011;4037;47.980;10.172;2022-12-18T07:31:20;18.90;;;10.63;;
7983;SDS011;4037;47.980;10.172;2022-12-18T07:33:47;21.40;;;11.53;;
7983;SDS011;4037;47.980;10.172;2022-12-18T07:36:13;16.93;;;10.13;;
7983;SDS011;4037;47.980;10.172;2022-12-18T07:38:40;19.83;;;11.60;;
7983;SDS011;4037;47.980;10.172;2022-12-18T07:41:07;24.47;;;12.53;;
7983;SDS011;4037;47.980;10.172;2022-12-18T07:43:34;22.17;;;11.33;;
7983;SDS011;4037;47.980;10.172;2022-12-18T07:46:00;19.73;;;11.30;;
7983;SDS011;4037;47.980;10.172;2022-12-18T07:48:27;23.07;;;12.10;;
7983;SDS011;4037;47.980;10.172;2022-12-18T07:50:53;23.43;;;12.93;;
7983;SDS011;4037;47.980;10.172;2022-12-18T07:53:19;22.70;;;12.30;;
7983;SDS011;4037;47.980;10.172;2022-12-18T07:55:45;21.70;;;12.37;;
7983;SDS011;4037;47.980;10.172;2022-12-18T07:58:11;21.67;;;12.57;;
7983;SDS011;4037;47.980;10.172;2022-12-18T08:00:37;22.10;;;12.57;;
7983;SDS011;4037;47.980;10.172;2022-12-18T08:03:03;24.20;;;13.03;;
7983;SDS011;4037;47.980;10.172;2022-12-18T08:05:29;23.53;;;11.77;;
7983;SDS011;4037;47.980;10.172;2022-12-18T08:07:55;24.77;;;12.00;;
7983;SDS011;4037;47.980;10.172;2022-12-18T08:10:21;23.70;;;12.50;;
7983;SDS011;4037;47.980;10.172;2022-12-18T08:12:50;25.57;;;13.83;;
7983;SDS011;4037;47.980;10.172;2022-12-18T08:15:17;24.27;;;13.40;;
7983;SDS011;4037;47.980;10.172;2022-12-18T08:17:46;24.90;;;13.33;;
7983;SDS011;4037;47.980;10.172;2022-12-18T08:20:12;25.20;;;13.70;;
7983;SDS011;4037;47.980;10.172;2022-12-18T08:22:39;22.50;;;12.33;;
7983;SDS011;4037;47.980;10.172;2022-12-18T08:25:06;22.37;;;13.67;;
7983;SDS011;4037;47.980;10.172;2022-12-18T08:27:32;23.57;;;12.70;;
7983;SDS011;4037;47.980;10.172;2022-12-18T08:29:58;23.87;;;13.63;;
7983;SDS011;4037;47.980;10.172;2022-12-18T08:32:24;27.93;;;13.70;;
7983;SDS011;4037;47.980;10.172;2022-12-18T08:34:50;27.07;;;13.63;;
7983;SDS011;4037;47.980;10.172;2022-12-18T08:37:16;24.93;;;13.63;;
7983;SDS011;4037;47.980;10.172;2022-12-18T08:39:42;21.90;;;12.07;;
7983;SDS011;4037;47.980;10.172;2022-12-18T08:42:08;23.40;;;14.40;;
7983;SDS011;4037;47.980;10.172;2022-12-18T08:44:53;25.63;;;13.93;;
7983;SDS011;4037;47.980;10.172;2022-12-18T08:47:19;26.67;;;14.27;;
7983;SDS011;4037;47.980;10.172;2022-12-18T08:49:45;27.13;;;12.17;;
7983;SDS011;4037;47.980;10.172;2022-12-18T08:52:11;29.50;;;14.47;;
7983;SDS011;4037;47.980;10.172;2022-12-18T08:54:40;30.60;;;15.73;;
7983;SDS011;4037;47.980;10.172;2022-12-18T08:57:06;29.10;;;15.43;;
7983;SDS011;4037;47.980;10.172;2022-12-18T08:59:32;34.53;;;16.20;;
7983;SDS011;4037;47.980;10.172;2022-12-18T09:01:58;31.70;;;15.70;;
7983;SDS011;4037;47.980;10.172;2022-12-18T09:04:24;35.73;;;16.60;;
7983;SDS011;4037;47.980;10.172;2022-12-18T09:06:50;30.20;;;13.87;;
7983;SDS011;4037;47.980;10.172;2022-12-18T09:09:16;31.40;;;15.73;;
7983;SDS011;4037;47.980;10.172;2022-12-18T09:11:42;32.73;;;14.53;;
7983;SDS011;4037;47.980;10.172;2022-12-18T09:14:08;31.33;;;16.13;;
7983;SDS011;4037;47.980;10.172;2022-12-18T09:16:34;39.27;;;16.57;;
7983;SDS011;4037;47.980;10.172;2022-12-18T09:19:01;39.00;;;18.13;;
7983;SDS011;4037;47.980;10.172;2022-12-18T09:21:29;49.40;;;20.07;;
7983;SDS011;4037;47.980;10.172;2022-12-18T09:23:55;39.33;;;17.60;;
7983;SDS011;4037;47.980;10.172;2022-12-18T09:26:22;49.80;;;25.27;;
7983;SDS011;4037;47.980;10.172;2022-12-18T09:28:48;40.77;;;18.57;;
7983;SDS011;4037;47.980;10.172;2022-12-18T09:31:14;35.87;;;17.60;;
7983;SDS011;4037;47.980;10.172;2022-12-18T09:33:40;34.83;;;16.93;;
7983;SDS011;4037;47.980;10.172;2022-12-18T09:36:07;37.80;;;17.43;;
7983;SDS011;4037;47.980;10.172;2022-12-18T09:38:34;50.60;;;23.87;;
7983;SDS011;4037;47.980;10.172;2022-12-18T09:41:01;46.83;;;21.90;;
7983;SDS011;4037;47.980;10.172;2022-12-18T09:43:37;36.77;;;18.23;;
7983;SDS011;4037;47.980;10.172;2022-12-18T09:46:07;42.93;;;20.50;;
7983;SDS011;4037;47.980;10.172;2022-12-18T09:48:38;43.00;;;22.93;;
7983;SDS011;4037;47.980;10.172;2022-12-18T09:51:12;30.83;;;16.97;;
7983;SDS011;4037;47.980;10.172;2022-12-18T09:53:39;45.67;;;21.37;;
7983;SDS011;4037;47.980;10.172;2022-12-18T09:56:06;40.00;;;17.50;;
7983;SDS011;4037;47.980;10.172;2022-12-18T10:01:07;39.47;;;20.17;;
7983;SDS011;4037;47.980;10.172;2022-12-18T10:03:35;32.93;;;17.70;;
7983;SDS011;4037;47.980;10.172;2022-12-18T10:06:02;34.30;;;16.77;;
7983;SDS011;4037;47.980;10.172;2022-12-18T10:11:03;30.77;;;14.97;;
7983;SDS011;4037;47.980;10.172;2022-12-18T10:14:01;33.87;;;16.17;;
7983;SDS011;4037;47.980;10.172;2022-12-18T10:16:42;30.20;;;15.63;;
7983;SDS011;4037;47.980;10.172;2022-12-18T10:19:16;36.57;;;17.83;;
7983;SDS011;4037;47.980;10.172;2022-12-18T10:26:38;33.03;;;15.47;;
7983;SDS011;4037;47.980;10.172;2022-12-18T10:29:09;31.80;;;15.87;;
7983;SDS011;4037;47.980;10.172;2022-12-18T10:31:36;32.07;;;16.30;;
7983;SDS011;4037;47.980;10.172;2022-12-18T10:34:02;31.93;;;17.10;;
7983;SDS011;4037;47.980;10.172;2022-12-18T10:36:28;31.47;;;16.27;;
7983;SDS011;4037;47.980;10.172;2022-12-18T10:39:00;32.97;;;16.00;;
7983;SDS011;4037;47.980;10.172;2022-12-18T10:41:40;29.80;;;15.87;;
7983;SDS011;4037;47.980;10.172;2022-12-18T10:44:10;30.77;;;16.97;;
7983;SDS011;4037;47.980;10.172;2022-12-18T10:46:36;31.73;;;15.50;;
7983;SDS011;4037;47.980;10.172;2022-12-18T10:49:02;28.33;;;14.30;;
7983;SDS011;4037;47.980;10.172;2022-12-18T10:51:30;31.43;;;15.90;;
7983;SDS011;4037;47.980;10.172;2022-12-18T10:56:27;31.00;;;15.63;;
7983;SDS011;4037;47.980;10.172;2022-12-18T10:59:01;28.67;;;15.63;;
7983;SDS011;4037;47.980;10.172;2022-12-18T11:01:28;32.40;;;16.63;;
7983;SDS011;4037;47.980;10.172;2022-12-18T11:06:24;30.93;;;15.93;;
7983;SDS011;4037;47.980;10.172;2022-12-18T11:08:57;31.37;;;15.27;;
7983;SDS011;4037;47.980;10.172;2022-12-18T11:11:24;30.67;;;15.43;;
7983;SDS011;4037;47.980;10.172;2022-12-18T11:16:22;33.10;;;16.17;;
7983;SDS011;4037;47.980;10.172;2022-12-18T11:18:48;35.17;;;16.83;;
7983;SDS011;4037;47.980;10.172;2022-12-18T11:21:14;32.57;;;16.10;;
7983;SDS011;4037;47.980;10.172;2022-12-18T11:23:49;29.57;;;15.80;;
7983;SDS011;4037;47.980;10.172;2022-12-18T11:26:15;36.17;;;17.43;;
7983;SDS011;4037;47.980;10.172;2022-12-18T11:33:44;33.00;;;16.67;;
7983;SDS011;4037;47.980;10.172;2022-12-18T11:36:11;34.90;;;16.17;;
7983;SDS011;4037;47.980;10.172;2022-12-18T11:38:41;27.40;;;16.40;;
7983;SDS011;4037;47.980;10.172;2022-12-18T11:46:47;32.90;;;17.27;;
7983;SDS011;4037;47.980;10.172;2022-12-18T11:49:12;29.30;;;16.83;;
7983;SDS011;4037;47.980;10.172;2022-12-18T11:51:42;32.23;;;16.83;;
7983;SDS011;4037;47.980;10.172;2022-12-18T11:54:12;34.50;;;17.67;;
7983;SDS011;4037;47.980;10.172;2022-12-18T11:56:40;29.97;;;16.50;;
7983;SDS011;4037;47.980;10.172;2022-12-18T12:01:54;62.40;;;35.20;;
7983;SDS011;4037;47.980;10.172;2022-12-18T12:09:28;34.97;;;16.80;;
7983;SDS011;4037;47.980;10.172;2022-12-18T12:24:49;33.37;;;18.20;;
7983;SDS011;4037;47.980;10.172;2022-12-18T12:40:18;30.20;;;15.37;;
7983;SDS011;4037;47.980;10.172;2022-12-18T12:42:47;29.07;;;17.07;;
7983;SDS011;4037;47.980;10.172;2022-12-18T12:45:46;29.80;;;18.40;;
7983;SDS011;4037;47.980;10.172;2022-12-18T12:48:16;32.73;;;16.27;;
7983;SDS011;4037;47.980;10.172;2022-12-18T12:50:43;28.17;;;16.00;;
7983;SDS011;4037;47.980;10.172;2022-12-18T12:53:18;27.40;;;15.53;;
7983;SDS011;4037;47.980;10.172;2022-12-18T12:55:46;28.10;;;16.90;;
7983;SDS011;4037;47.980;10.172;2022-12-18T12:58:18;33.17;;;15.57;;
7983;SDS011;4037;47.980;10.172;2022-12-18T13:01:32;28.60;;;14.60;;
7983;SDS011;4037;47.980;10.172;2022-12-18T13:08:57;28.07;;;15.53;;
7983;SDS011;4037;47.980;10.172;2022-12-18T13:14:21;30.23;;;17.17;;
7983;SDS011;4037;47.980;10.172;2022-12-18T13:16:48;28.00;;;16.40;;
7983;SDS011;4037;47.980;10.172;2022-12-18T13:19:23;29.33;;;16.63;;
7983;SDS011;4037;47.980;10.172;2022-12-18T13:21:52;29.77;;;17.47;;
7983;SDS011;4037;47.980;10.172;2022-12-18T13:24:26;41.07;;;22.13;;
7983;SDS011;4037;47.980;10.172;2022-12-18T13:26:54;42.83;;;23.70;;
7983;SDS011;4037;47.980;10.172;2022-12-18T13:32:15;57.67;;;29.20;;
7983;SDS011;4037;47.980;10.172;2022-12-18T13:34:45;34.30;;;18.43;;
7983;SDS011;4037;47.980;10.172;2022-12-18T13:39:55;30.13;;;16.80;;
7983;SDS011;4037;47.980;10.172;2022-12-18T13:47:54;32.07;;;17.73;;
7983;SDS011;4037;47.980;10.172;2022-12-18T13:50:22;32.53;;;17.97;;
7983;SDS011;4037;47.980;10.172;2022-12-18T13:52:52;33.50;;;20.70;;
7983;SDS011;4037;47.980;10.172;2022-12-18T13:55:18;36.70;;;20.23;;
7983;SDS011;4037;47.980;10.172;2022-12-18T13:57:45;32.23;;;16.73;;
7983;SDS011;4037;47.980;10.172;2022-12-18T14:00:28;28.23;;;16.17;;
7983;SDS011;4037;47.980;10.172;2022-12-18T14:02:54;30.27;;;14.03;;
7983;SDS011;4037;47.980;10.172;2022-12-18T14:05:25;30.70;;;16.63;;
7983;SDS011;4037;47.980;10.172;2022-12-18T14:07:52;38.40;;;18.57;;
7983;SDS011;4037;47.980;10.172;2022-12-18T14:10:18;29.07;;;15.73;;
7983;SDS011;4037;47.980;10.172;2022-12-18T14:12:46;30.40;;;16.33;;
7983;SDS011;4037;47.980;10.172;2022-12-18T14:18:26;36.93;;;17.73;;
7983;SDS011;4037;47.980;10.172;2022-12-18T14:20:56;38.07;;;19.53;;
7983;SDS011;4037;47.980;10.172;2022-12-18T14:23:33;43.87;;;22.53;;
7983;SDS011;4037;47.980;10.172;2022-12-18T14:26:01;39.03;;;19.07;;
7983;SDS011;4037;47.980;10.172;2022-12-18T14:28:27;42.83;;;21.37;;
7983;SDS011;4037;47.980;10.172;2022-12-18T14:30:53;40.57;;;18.77;;
7983;SDS011;4037;47.980;10.172;2022-12-18T14:33:21;38.97;;;20.13;;
7983;SDS011;4037;47.980;10.172;2022-12-18T14:36:00;38.53;;;18.23;;
7983;SDS011;4037;47.980;10.172;2022-12-18T14:40:53;41.23;;;21.57;;
7983;SDS011;4037;47.980;10.172;2022-12-18T14:43:31;42.23;;;20.33;;
7983;SDS011;4037;47.980;10.172;2022-12-18T14:45:57;43.60;;;20.17;;
7983;SDS011;4037;47.980;10.172;2022-12-18T14:51:06;43.87;;;19.87;;
7983;SDS011;4037;47.980;10.172;2022-12-18T14:53:37;44.67;;;22.03;;
7983;SDS011;4037;47.980;10.172;2022-12-18T14:56:10;43.37;;;21.47;;
7983;SDS011;4037;47.980;10.172;2022-12-18T14:58:39;45.63;;;21.27;;
7983;SDS011;4037;47.980;10.172;2022-12-18T15:01:17;44.23;;;19.67;;
7983;SDS011;4037;47.980;10.172;2022-12-18T15:03:43;46.40;;;22.17;;
7983;SDS011;4037;47.980;10.172;2022-12-18T15:06:16;42.83;;;20.63;;
7983;SDS011;4037;47.980;10.172;2022-12-18T15:08:43;41.20;;;19.77;;
7983;SDS011;4037;47.980;10.172;2022-12-18T15:13:53;35.03;;;18.10;;
7983;SDS011;4037;47.980;10.172;2022-12-18T15:16:19;38.40;;;18.93;;
7983;SDS011;4037;47.980;10.172;2022-12-18T15:18:45;47.20;;;24.10;;
7983;SDS011;4037;47.980;10.172;2022-12-18T15:21:15;45.97;;;22.43;;
7983;SDS011;4037;47.980;10.172;2022-12-18T15:26:09;42.70;;;22.07;;
7983;SDS011;4037;47.980;10.172;2022-12-18T15:28:37;39.97;;;21.10;;
7983;SDS011;4037;47.980;10.172;2022-12-18T15:33:39;39.33;;;20.47;;
7983;SDS011;4037;47.980;10.172;2022-12-18T15:36:10;46.00;;;22.97;;
7983;SDS011;4037;47.980;10.172;2022-12-18T15:38:36;41.00;;;19.43;;
7983;SDS011;4037;47.980;10.172;2022-12-18T15:41:02;39.70;;;21.07;;
7983;SDS011;4037;47.980;10.172;2022-12-18T15:43:32;34.10;;;19.53;;
7983;SDS011;4037;47.980;10.172;2022-12-18T15:48:27;47.40;;;22.20;;
7983;SDS011;4037;47.980;10.172;2022-12-18T15:50:53;38.60;;;21.37;;
7983;SDS011;4037;47.980;10.172;2022-12-18T15:53:21;42.33;;;21.27;;
7983;SDS011;4037;47.980;10.172;2022-12-18T15:55:48;40.73;;;19.77;;
7983;SDS011;4037;47.980;10.172;2022-12-18T15:58:33;40.60;;;20.70;;
7983;SDS011;4037;47.980;10.172;2022-12-18T16:00:59;42.27;;;21.43;;
7983;SDS011;4037;47.980;10.172;2022-12-18T16:03:26;40.43;;;20.97;;
7983;SDS011;4037;47.980;10.172;2022-12-18T16:05:52;41.43;;;21.17;;
7983;SDS011;4037;47.980;10.172;2022-12-18T16:08:18;39.87;;;20.13;;
7983;SDS011;4037;47.980;10.172;2022-12-18T16:10:44;38.80;;;19.23;;
7983;SDS011;4037;47.980;10.172;2022-12-18T16:13:10;38.00;;;19.33;;
7983;SDS011;4037;47.980;10.172;2022-12-18T16:15:37;56.67;;;27.53;;
7983;SDS011;4037;47.980;10.172;2022-12-18T16:18:03;44.60;;;21.07;;
7983;SDS011;4037;47.980;10.172;2022-12-18T16:20:29;40.13;;;21.00;;
7983;SDS011;4037;47.980;10.172;2022-12-18T16:22:55;51.47;;;21.90;;
7983;SDS011;4037;47.980;10.172;2022-12-18T16:25:27;46.43;;;22.07;;
7983;SDS011;4037;47.980;10.172;2022-12-18T16:27:54;47.33;;;22.23;;
7983;SDS011;4037;47.980;10.172;2022-12-18T16:30:25;126.07;;;54.30;;
7983;SDS011;4037;47.980;10.172;2022-12-18T16:32:52;83.13;;;37.97;;
7983;SDS011;4037;47.980;10.172;2022-12-18T16:35:18;68.70;;;30.90;;